Portada
METAR-TAF:

METAR-TAF

Aeroports :

Sirri Island, Iran

latitud: 25-54-34N, longitud: 054-32-22E, altitud: 13 m

Observació

L'informe es va fer fa 4 hores i 44 minuts, a les 15:00 UTC
Vent 6 kt del Oest
Temperatura 32°C
Humitat 84%
Pressió 999 hPa
Visibilitat: 5000 m
boirina,

METAR: OIBS 281500Z 27006KT 5000 BR NSC 32/29 Q0999

Hora: 00:14 (19:44 UTC)


TAF: manca

Observacions i pronòstics meteorològics de més de 4000 aeroports (METAR i TAF).

Les estacions disponibles són els punts grocs i vermells al mapa.

Posi el ratolí al punt desitjat per veure el nom de l'estació.

Feu clic per veure les observacions i els pronòstics meteorològics.

Per canviar el mapa: feu clic els botons verds amb una creu de color negre per apropar; al botó verd amb un guió per allunyar la imatge; o en les fletxes verdes per a mapes adjacents.


METAR-TAF: